sensor_id;sensor_type;location;lat;lon;timestamp;P1;durP1;ratioP1;P2;durP2;ratioP2
59872;SDS011;50750;51.636;4.948;2023-06-01T00:02:09;4.30;;;2.90;;
59872;SDS011;50750;51.636;4.948;2023-06-01T00:04:38;6.00;;;3.10;;
59872;SDS011;50750;51.636;4.948;2023-06-01T00:07:08;4.10;;;2.90;;
59872;SDS011;50750;51.636;4.948;2023-06-01T00:09:36;5.20;;;3.10;;
59872;SDS011;50750;51.636;4.948;2023-06-01T00:12:03;5.20;;;3.20;;
59872;SDS011;50750;51.636;4.948;2023-06-01T00:14:31;4.40;;;3.10;;
59872;SDS011;50750;51.636;4.948;2023-06-01T00:16:58;5.00;;;2.90;;
59872;SDS011;50750;51.636;4.948;2023-06-01T00:19:25;5.20;;;3.30;;
59872;SDS011;50750;51.636;4.948;2023-06-01T00:21:53;4.10;;;3.10;;
59872;SDS011;50750;51.636;4.948;2023-06-01T00:24:21;4.30;;;2.90;;
59872;SDS011;50750;51.636;4.948;2023-06-01T00:26:49;4.80;;;2.90;;
59872;SDS011;50750;51.636;4.948;2023-06-01T00:29:15;4.80;;;3.10;;
59872;SDS011;50750;51.636;4.948;2023-06-01T00:31:42;5.50;;;3.10;;
59872;SDS011;50750;51.636;4.948;2023-06-01T00:34:09;5.30;;;3.30;;
59872;SDS011;50750;51.636;4.948;2023-06-01T00:36:35;4.10;;;2.90;;
59872;SDS011;50750;51.636;4.948;2023-06-01T00:39:02;4.70;;;3.00;;
59872;SDS011;50750;51.636;4.948;2023-06-01T00:41:30;4.60;;;3.10;;
59872;SDS011;50750;51.636;4.948;2023-06-01T00:43:57;4.30;;;3.00;;
59872;SDS011;50750;51.636;4.948;2023-06-01T00:46:24;6.30;;;3.10;;
59872;SDS011;50750;51.636;4.948;2023-06-01T00:48:52;4.20;;;3.00;;
59872;SDS011;50750;51.636;4.948;2023-06-01T00:51:19;3.90;;;2.80;;
59872;SDS011;50750;51.636;4.948;2023-06-01T00:53:46;4.40;;;3.00;;
59872;SDS011;50750;51.636;4.948;2023-06-01T00:56:13;3.70;;;2.70;;
59872;SDS011;50750;51.636;4.948;2023-06-01T00:58:40;6.30;;;3.30;;
59872;SDS011;50750;51.636;4.948;2023-06-01T01:01:07;4.80;;;3.00;;
59872;SDS011;50750;51.636;4.948;2023-06-01T01:03:34;6.00;;;3.20;;
59872;SDS011;50750;51.636;4.948;2023-06-01T01:06:10;4.60;;;2.90;;
59872;SDS011;50750;51.636;4.948;2023-06-01T01:11:35;4.60;;;3.10;;
59872;SDS011;50750;51.636;4.948;2023-06-01T01:16:48;4.50;;;3.00;;
59872;SDS011;50750;51.636;4.948;2023-06-01T01:24:56;4.50;;;3.00;;
59872;SDS011;50750;51.636;4.948;2023-06-01T01:30:20;4.50;;;3.00;;
59872;SDS011;50750;51.636;4.948;2023-06-01T01:32:49;5.90;;;3.30;;
59872;SDS011;50750;51.636;4.948;2023-06-01T01:35:17;5.50;;;3.00;;
59872;SDS011;50750;51.636;4.948;2023-06-01T01:37:51;5.00;;;3.20;;
59872;SDS011;50750;51.636;4.948;2023-06-01T01:40:18;6.00;;;3.10;;
59872;SDS011;50750;51.636;4.948;2023-06-01T01:42:46;4.50;;;3.00;;
59872;SDS011;50750;51.636;4.948;2023-06-01T01:45:15;5.10;;;2.90;;
59872;SDS011;50750;51.636;4.948;2023-06-01T01:50:18;4.60;;;2.80;;
59872;SDS011;50750;51.636;4.948;2023-06-01T01:52:47;5.40;;;3.30;;
59872;SDS011;50750;51.636;4.948;2023-06-01T01:55:16;4.50;;;3.10;;
59872;SDS011;50750;51.636;4.948;2023-06-01T01:57:44;6.20;;;3.60;;
59872;SDS011;50750;51.636;4.948;2023-06-01T02:00:11;4.90;;;3.40;;
59872;SDS011;50750;51.636;4.948;2023-06-01T02:02:39;5.00;;;3.10;;
59872;SDS011;50750;51.636;4.948;2023-06-01T02:05:06;4.70;;;3.10;;
59872;SDS011;50750;51.636;4.948;2023-06-01T02:07:34;5.10;;;3.20;;
59872;SDS011;50750;51.636;4.948;2023-06-01T02:10:01;4.80;;;3.00;;
59872;SDS011;50750;51.636;4.948;2023-06-01T02:12:27;4.90;;;3.10;;
59872;SDS011;50750;51.636;4.948;2023-06-01T02:14:54;5.80;;;3.10;;
59872;SDS011;50750;51.636;4.948;2023-06-01T02:17:20;5.10;;;2.90;;
59872;SDS011;50750;51.636;4.948;2023-06-01T02:19:48;6.00;;;2.80;;
59872;SDS011;50750;51.636;4.948;2023-06-01T02:22:14;5.80;;;3.30;;
59872;SDS011;50750;51.636;4.948;2023-06-01T02:24:41;4.50;;;3.10;;
59872;SDS011;50750;51.636;4.948;2023-06-01T02:27:07;5.20;;;2.90;;
59872;SDS011;50750;51.636;4.948;2023-06-01T02:29:34;4.70;;;2.90;;
59872;SDS011;50750;51.636;4.948;2023-06-01T02:32:00;5.50;;;3.00;;
59872;SDS011;50750;51.636;4.948;2023-06-01T02:34:27;4.20;;;3.10;;
59872;SDS011;50750;51.636;4.948;2023-06-01T02:36:53;5.80;;;3.00;;
59872;SDS011;50750;51.636;4.948;2023-06-01T02:39:23;4.60;;;2.90;;
59872;SDS011;50750;51.636;4.948;2023-06-01T02:41:50;5.30;;;3.30;;
59872;SDS011;50750;51.636;4.948;2023-06-01T02:44:16;5.00;;;2.80;;
59872;SDS011;50750;51.636;4.948;2023-06-01T02:46:43;5.80;;;3.10;;
59872;SDS011;50750;51.636;4.948;2023-06-01T02:49:09;4.00;;;2.70;;
59872;SDS011;50750;51.636;4.948;2023-06-01T02:51:36;4.70;;;2.90;;
59872;SDS011;50750;51.636;4.948;2023-06-01T02:54:02;4.10;;;2.90;;
59872;SDS011;50750;51.636;4.948;2023-06-01T02:56:29;4.90;;;2.90;;
59872;SDS011;50750;51.636;4.948;2023-06-01T02:58:56;3.50;;;2.80;;
59872;SDS011;50750;51.636;4.948;2023-06-01T03:01:22;4.90;;;2.90;;
59872;SDS011;50750;51.636;4.948;2023-06-01T03:03:49;6.30;;;3.10;;
59872;SDS011;50750;51.636;4.948;2023-06-01T03:06:18;5.30;;;2.80;;
59872;SDS011;50750;51.636;4.948;2023-06-01T03:11:17;5.10;;;2.80;;
59872;SDS011;50750;51.636;4.948;2023-06-01T03:13:43;4.70;;;2.90;;
59872;SDS011;50750;51.636;4.948;2023-06-01T03:16:10;5.20;;;2.80;;
59872;SDS011;50750;51.636;4.948;2023-06-01T03:18:36;5.20;;;2.80;;
59872;SDS011;50750;51.636;4.948;2023-06-01T03:21:03;3.80;;;2.70;;
59872;SDS011;50750;51.636;4.948;2023-06-01T03:23:30;4.70;;;2.90;;
59872;SDS011;50750;51.636;4.948;2023-06-01T03:25:56;4.10;;;2.90;;
59872;SDS011;50750;51.636;4.948;2023-06-01T03:28:23;4.70;;;2.60;;
59872;SDS011;50750;51.636;4.948;2023-06-01T03:30:50;4.70;;;3.00;;
59872;SDS011;50750;51.636;4.948;2023-06-01T03:33:17;5.20;;;2.70;;
59872;SDS011;50750;51.636;4.948;2023-06-01T03:35:44;4.70;;;2.80;;
59872;SDS011;50750;51.636;4.948;2023-06-01T03:38:10;3.60;;;2.50;;
59872;SDS011;50750;51.636;4.948;2023-06-01T03:40:37;4.60;;;2.90;;
59872;SDS011;50750;51.636;4.948;2023-06-01T03:43:03;5.90;;;3.00;;
59872;SDS011;50750;51.636;4.948;2023-06-01T03:45:30;4.30;;;2.70;;
59872;SDS011;50750;51.636;4.948;2023-06-01T03:47:56;4.00;;;2.60;;
59872;SDS011;50750;51.636;4.948;2023-06-01T03:50:23;4.90;;;2.70;;
59872;SDS011;50750;51.636;4.948;2023-06-01T03:52:49;4.20;;;2.60;;
59872;SDS011;50750;51.636;4.948;2023-06-01T03:55:16;5.40;;;2.90;;
59872;SDS011;50750;51.636;4.948;2023-06-01T03:57:43;4.90;;;2.70;;
59872;SDS011;50750;51.636;4.948;2023-06-01T04:00:09;4.80;;;3.00;;
59872;SDS011;50750;51.636;4.948;2023-06-01T04:02:55;3.90;;;2.50;;
59872;SDS011;50750;51.636;4.948;2023-06-01T04:05:24;3.80;;;2.60;;
59872;SDS011;50750;51.636;4.948;2023-06-01T04:07:52;5.30;;;2.60;;
59872;SDS011;50750;51.636;4.948;2023-06-01T04:10:22;4.40;;;2.70;;
59872;SDS011;50750;51.636;4.948;2023-06-01T04:12:49;4.30;;;2.50;;
59872;SDS011;50750;51.636;4.948;2023-06-01T04:15:17;5.70;;;2.50;;
59872;SDS011;50750;51.636;4.948;2023-06-01T04:17:45;4.10;;;2.40;;
59872;SDS011;50750;51.636;4.948;2023-06-01T04:20:13;4.80;;;2.50;;
59872;SDS011;50750;51.636;4.948;2023-06-01T04:22:44;4.50;;;2.40;;
59872;SDS011;50750;51.636;4.948;2023-06-01T04:25:13;4.80;;;2.40;;
59872;SDS011;50750;51.636;4.948;2023-06-01T04:27:44;3.60;;;2.40;;
59872;SDS011;50750;51.636;4.948;2023-06-01T04:30:13;5.00;;;2.70;;
59872;SDS011;50750;51.636;4.948;2023-06-01T04:32:42;3.90;;;2.60;;
59872;SDS011;50750;51.636;4.948;2023-06-01T04:35:10;4.70;;;2.40;;
59872;SDS011;50750;51.636;4.948;2023-06-01T04:37:37;4.30;;;2.60;;
59872;SDS011;50750;51.636;4.948;2023-06-01T04:40:06;4.10;;;2.70;;
59872;SDS011;50750;51.636;4.948;2023-06-01T04:42:36;4.80;;;2.80;;
59872;SDS011;50750;51.636;4.948;2023-06-01T04:45:05;4.00;;;2.80;;
59872;SDS011;50750;51.636;4.948;2023-06-01T04:47:34;4.40;;;2.70;;
59872;SDS011;50750;51.636;4.948;2023-06-01T04:50:06;4.10;;;2.50;;
59872;SDS011;50750;51.636;4.948;2023-06-01T04:52:38;4.50;;;2.60;;
59872;SDS011;50750;51.636;4.948;2023-06-01T04:55:07;3.70;;;2.40;;
59872;SDS011;50750;51.636;4.948;2023-06-01T04:57:35;3.80;;;2.50;;
59872;SDS011;50750;51.636;4.948;2023-06-01T05:00:08;4.20;;;2.50;;
59872;SDS011;50750;51.636;4.948;2023-06-01T05:02:39;5.10;;;2.70;;
59872;SDS011;50750;51.636;4.948;2023-06-01T05:05:07;3.50;;;2.30;;
59872;SDS011;50750;51.636;4.948;2023-06-01T05:07:35;4.70;;;2.70;;
59872;SDS011;50750;51.636;4.948;2023-06-01T05:10:06;4.30;;;2.40;;
59872;SDS011;50750;51.636;4.948;2023-06-01T05:12:34;4.90;;;2.70;;
59872;SDS011;50750;51.636;4.948;2023-06-01T05:15:03;4.70;;;2.30;;
59872;SDS011;50750;51.636;4.948;2023-06-01T05:17:32;4.60;;;2.60;;
59872;SDS011;50750;51.636;4.948;2023-06-01T05:19:59;4.70;;;2.70;;
59872;SDS011;50750;51.636;4.948;2023-06-01T05:22:25;4.80;;;2.80;;
59872;SDS011;50750;51.636;4.948;2023-06-01T05:24:52;3.30;;;2.50;;
59872;SDS011;50750;51.636;4.948;2023-06-01T05:27:19;5.40;;;3.00;;
59872;SDS011;50750;51.636;4.948;2023-06-01T05:29:45;4.70;;;2.80;;
59872;SDS011;50750;51.636;4.948;2023-06-01T05:32:12;5.60;;;2.90;;
59872;SDS011;50750;51.636;4.948;2023-06-01T05:34:38;5.50;;;2.80;;
59872;SDS011;50750;51.636;4.948;2023-06-01T05:37:05;4.10;;;2.90;;
59872;SDS011;50750;51.636;4.948;2023-06-01T05:39:31;4.60;;;2.60;;
59872;SDS011;50750;51.636;4.948;2023-06-01T05:41:58;4.60;;;2.70;;
59872;SDS011;50750;51.636;4.948;2023-06-01T05:44:25;4.80;;;2.60;;
59872;SDS011;50750;51.636;4.948;2023-06-01T05:46:51;3.90;;;2.70;;
59872;SDS011;50750;51.636;4.948;2023-06-01T05:49:19;4.90;;;2.60;;
59872;SDS011;50750;51.636;4.948;2023-06-01T05:51:46;4.60;;;2.90;;
59872;SDS011;50750;51.636;4.948;2023-06-01T05:54:12;5.00;;;2.90;;
59872;SDS011;50750;51.636;4.948;2023-06-01T05:56:42;4.30;;;2.60;;
59872;SDS011;50750;51.636;4.948;2023-06-01T05:59:09;6.50;;;2.80;;
59872;SDS011;50750;51.636;4.948;2023-06-01T06:01:35;3.90;;;2.80;;
59872;SDS011;50750;51.636;4.948;2023-06-01T06:04:02;5.20;;;3.00;;
59872;SDS011;50750;51.636;4.948;2023-06-01T06:06:29;4.90;;;2.90;;
59872;SDS011;50750;51.636;4.948;2023-06-01T06:08:56;5.60;;;2.80;;
59872;SDS011;50750;51.636;4.948;2023-06-01T06:11:25;4.70;;;2.80;;
59872;SDS011;50750;51.636;4.948;2023-06-01T06:13:52;5.70;;;3.20;;
59872;SDS011;50750;51.636;4.948;2023-06-01T06:16:19;5.90;;;2.90;;
59872;SDS011;50750;51.636;4.948;2023-06-01T06:18:46;5.50;;;2.80;;
59872;SDS011;50750;51.636;4.948;2023-06-01T06:21:12;4.70;;;2.80;;
59872;SDS011;50750;51.636;4.948;2023-06-01T06:23:39;4.10;;;2.60;;
59872;SDS011;50750;51.636;4.948;2023-06-01T06:26:06;4.60;;;2.80;;
59872;SDS011;50750;51.636;4.948;2023-06-01T06:28:32;4.80;;;3.50;;
59872;SDS011;50750;51.636;4.948;2023-06-01T06:30:59;5.10;;;3.10;;
59872;SDS011;50750;51.636;4.948;2023-06-01T06:33:26;4.70;;;2.80;;
59872;SDS011;50750;51.636;4.948;2023-06-01T06:35:52;5.80;;;3.20;;
59872;SDS011;50750;51.636;4.948;2023-06-01T06:38:19;4.30;;;2.90;;
59872;SDS011;50750;51.636;4.948;2023-06-01T06:40:45;5.70;;;3.20;;
59872;SDS011;50750;51.636;4.948;2023-06-01T06:43:12;4.70;;;3.00;;
59872;SDS011;50750;51.636;4.948;2023-06-01T06:45:39;5.10;;;3.10;;
59872;SDS011;50750;51.636;4.948;2023-06-01T06:48:07;6.00;;;3.20;;
59872;SDS011;50750;51.636;4.948;2023-06-01T06:50:34;7.00;;;3.00;;
59872;SDS011;50750;51.636;4.948;2023-06-01T06:53:01;5.60;;;3.30;;
59872;SDS011;50750;51.636;4.948;2023-06-01T06:55:28;4.30;;;3.00;;
59872;SDS011;50750;51.636;4.948;2023-06-01T06:57:55;5.80;;;2.90;;
59872;SDS011;50750;51.636;4.948;2023-06-01T07:00:21;4.50;;;2.90;;
59872;SDS011;50750;51.636;4.948;2023-06-01T07:02:48;5.20;;;3.20;;
59872;SDS011;50750;51.636;4.948;2023-06-01T07:05:15;5.70;;;3.40;;
59872;SDS011;50750;51.636;4.948;2023-06-01T07:07:41;5.60;;;3.50;;
59872;SDS011;50750;51.636;4.948;2023-06-01T07:10:08;5.50;;;3.00;;
59872;SDS011;50750;51.636;4.948;2023-06-01T07:12:35;4.60;;;3.20;;
59872;SDS011;50750;51.636;4.948;2023-06-01T07:15:01;4.40;;;3.10;;
59872;SDS011;50750;51.636;4.948;2023-06-01T07:17:28;7.60;;;3.60;;
59872;SDS011;50750;51.636;4.948;2023-06-01T07:19:55;5.00;;;3.40;;
59872;SDS011;50750;51.636;4.948;2023-06-01T07:22:22;4.20;;;2.80;;
59872;SDS011;50750;51.636;4.948;2023-06-01T07:24:48;4.70;;;3.00;;
59872;SDS011;50750;51.636;4.948;2023-06-01T07:27:16;6.30;;;3.50;;
59872;SDS011;50750;51.636;4.948;2023-06-01T07:29:44;5.60;;;3.20;;
59872;SDS011;50750;51.636;4.948;2023-06-01T07:32:10;6.40;;;3.60;;
59872;SDS011;50750;51.636;4.948;2023-06-01T07:34:37;4.30;;;3.00;;
59872;SDS011;50750;51.636;4.948;2023-06-01T07:37:04;5.10;;;3.30;;
59872;SDS011;50750;51.636;4.948;2023-06-01T07:39:31;4.90;;;3.10;;
59872;SDS011;50750;51.636;4.948;2023-06-01T07:41:57;4.20;;;3.00;;
59872;SDS011;50750;51.636;4.948;2023-06-01T07:44:24;4.90;;;3.30;;
59872;SDS011;50750;51.636;4.948;2023-06-01T07:46:50;5.50;;;3.40;;
59872;SDS011;50750;51.636;4.948;2023-06-01T07:49:17;5.70;;;3.50;;
59872;SDS011;50750;51.636;4.948;2023-06-01T07:51:43;5.20;;;3.20;;
59872;SDS011;50750;51.636;4.948;2023-06-01T07:54:10;4.80;;;3.30;;
59872;SDS011;50750;51.636;4.948;2023-06-01T07:56:37;5.00;;;3.20;;
59872;SDS011;50750;51.636;4.948;2023-06-01T07:59:04;5.10;;;3.10;;
59872;SDS011;50750;51.636;4.948;2023-06-01T08:01:31;5.00;;;3.20;;
59872;SDS011;50750;51.636;4.948;2023-06-01T08:03:59;5.50;;;3.30;;
59872;SDS011;50750;51.636;4.948;2023-06-01T08:06:27;6.50;;;3.30;;
59872;SDS011;50750;51.636;4.948;2023-06-01T08:08:54;5.60;;;3.50;;
59872;SDS011;50750;51.636;4.948;2023-06-01T08:11:21;5.00;;;3.30;;
59872;SDS011;50750;51.636;4.948;2023-06-01T08:13:49;5.10;;;3.20;;
59872;SDS011;50750;51.636;4.948;2023-06-01T08:16:17;5.30;;;3.30;;
59872;SDS011;50750;51.636;4.948;2023-06-01T08:18:43;4.90;;;3.50;;
59872;SDS011;50750;51.636;4.948;2023-06-01T08:21:10;5.70;;;3.30;;
59872;SDS011;50750;51.636;4.948;2023-06-01T08:23:37;6.10;;;3.30;;
59872;SDS011;50750;51.636;4.948;2023-06-01T08:26:03;4.70;;;3.30;;
59872;SDS011;50750;51.636;4.948;2023-06-01T08:28:30;5.20;;;3.50;;
59872;SDS011;50750;51.636;4.948;2023-06-01T08:30:59;5.90;;;3.50;;
59872;SDS011;50750;51.636;4.948;2023-06-01T08:33:25;6.10;;;3.50;;
59872;SDS011;50750;51.636;4.948;2023-06-01T08:35:52;6.00;;;3.70;;
59872;SDS011;50750;51.636;4.948;2023-06-01T08:38:19;4.90;;;3.40;;
59872;SDS011;50750;51.636;4.948;2023-06-01T08:40:47;5.10;;;3.20;;
59872;SDS011;50750;51.636;4.948;2023-06-01T08:43:17;5.80;;;3.40;;
59872;SDS011;50750;51.636;4.948;2023-06-01T08:45:46;5.00;;;3.50;;
59872;SDS011;50750;51.636;4.948;2023-06-01T08:48:15;5.90;;;3.70;;
59872;SDS011;50750;51.636;4.948;2023-06-01T08:50:49;5.10;;;3.60;;
59872;SDS011;50750;51.636;4.948;2023-06-01T08:53:17;6.50;;;3.90;;
59872;SDS011;50750;51.636;4.948;2023-06-01T08:55:54;5.20;;;3.90;;
59872;SDS011;50750;51.636;4.948;2023-06-01T08:58:22;6.30;;;3.40;;
59872;SDS011;50750;51.636;4.948;2023-06-01T09:00:51;5.40;;;3.90;;
59872;SDS011;50750;51.636;4.948;2023-06-01T09:03:20;5.40;;;3.60;;
59872;SDS011;50750;51.636;4.948;2023-06-01T09:05:46;6.10;;;3.60;;
59872;SDS011;50750;51.636;4.948;2023-06-01T09:08:13;5.40;;;3.70;;
59872;SDS011;50750;51.636;4.948;2023-06-01T09:10:40;5.40;;;3.60;;
59872;SDS011;50750;51.636;4.948;2023-06-01T09:13:07;5.90;;;3.90;;
59872;SDS011;50750;51.636;4.948;2023-06-01T09:15:34;5.60;;;3.80;;
59872;SDS011;50750;51.636;4.948;2023-06-01T09:18:07;5.80;;;3.70;;
59872;SDS011;50750;51.636;4.948;2023-06-01T09:20:36;5.90;;;3.90;;
59872;SDS011;50750;51.636;4.948;2023-06-01T09:23:05;5.60;;;3.70;;
59872;SDS011;50750;51.636;4.948;2023-06-01T09:25:32;5.50;;;3.60;;
59872;SDS011;50750;51.636;4.948;2023-06-01T09:28:00;6.60;;;3.90;;
59872;SDS011;50750;51.636;4.948;2023-06-01T09:30:40;6.40;;;4.20;;
59872;SDS011;50750;51.636;4.948;2023-06-01T09:33:15;5.30;;;3.50;;
59872;SDS011;50750;51.636;4.948;2023-06-01T09:35:45;6.10;;;3.80;;
59872;SDS011;50750;51.636;4.948;2023-06-01T09:38:25;5.60;;;3.70;;
59872;SDS011;50750;51.636;4.948;2023-06-01T09:40:59;5.50;;;3.80;;
59872;SDS011;50750;51.636;4.948;2023-06-01T09:43:27;5.80;;;3.60;;
59872;SDS011;50750;51.636;4.948;2023-06-01T09:49:03;6.00;;;4.10;;
59872;SDS011;50750;51.636;4.948;2023-06-01T09:51:32;6.10;;;3.80;;
59872;SDS011;50750;51.636;4.948;2023-06-01T09:53:59;6.80;;;4.20;;
59872;SDS011;50750;51.636;4.948;2023-06-01T09:56:27;6.40;;;4.00;;
59872;SDS011;50750;51.636;4.948;2023-06-01T09:58:58;6.10;;;4.20;;
59872;SDS011;50750;51.636;4.948;2023-06-01T10:01:29;6.50;;;4.50;;
59872;SDS011;50750;51.636;4.948;2023-06-01T10:03:57;5.70;;;3.80;;
59872;SDS011;50750;51.636;4.948;2023-06-01T10:06:27;5.50;;;4.00;;
59872;SDS011;50750;51.636;4.948;2023-06-01T10:08:55;5.50;;;4.10;;
59872;SDS011;50750;51.636;4.948;2023-06-01T10:11:23;6.90;;;4.10;;
59872;SDS011;50750;51.636;4.948;2023-06-01T10:13:49;8.20;;;4.20;;
59872;SDS011;50750;51.636;4.948;2023-06-01T10:16:16;7.50;;;4.30;;
59872;SDS011;50750;51.636;4.948;2023-06-01T10:18:43;7.90;;;4.30;;
59872;SDS011;50750;51.636;4.948;2023-06-01T10:21:12;6.10;;;4.30;;
59872;SDS011;50750;51.636;4.948;2023-06-01T10:23:40;5.90;;;3.80;;
59872;SDS011;50750;51.636;4.948;2023-06-01T10:26:11;5.80;;;4.00;;
59872;SDS011;50750;51.636;4.948;2023-06-01T10:28:41;5.50;;;4.10;;
59872;SDS011;50750;51.636;4.948;2023-06-01T10:34:02;7.00;;;4.60;;
59872;SDS011;50750;51.636;4.948;2023-06-01T10:39:21;5.60;;;4.00;;
59872;SDS011;50750;51.636;4.948;2023-06-01T10:41:55;6.80;;;4.20;;
59872;SDS011;50750;51.636;4.948;2023-06-01T10:44:44;7.00;;;4.00;;
59872;SDS011;50750;51.636;4.948;2023-06-01T10:52:30;7.00;;;4.00;;
59872;SDS011;50750;51.636;4.948;2023-06-01T10:57:33;6.10;;;3.90;;
59872;SDS011;50750;51.636;4.948;2023-06-01T11:00:16;5.80;;;4.20;;
59872;SDS011;50750;51.636;4.948;2023-06-01T11:03:00;7.40;;;3.80;;
59872;SDS011;50750;51.636;4.948;2023-06-01T11:13:45;5.40;;;3.60;;
59872;SDS011;50750;51.636;4.948;2023-06-01T11:16:32;5.60;;;4.10;;
59872;SDS011;50750;51.636;4.948;2023-06-01T11:18:59;6.30;;;3.90;;
59872;SDS011;50750;51.636;4.948;2023-06-01T11:24:06;6.10;;;4.20;;
59872;SDS011;50750;51.636;4.948;2023-06-01T11:29:18;7.40;;;4.20;;
59872;SDS011;50750;51.636;4.948;2023-06-01T11:31:49;6.30;;;4.20;;
59872;SDS011;50750;51.636;4.948;2023-06-01T11:34:28;6.70;;;4.00;;
59872;SDS011;50750;51.636;4.948;2023-06-01T11:36:58;6.50;;;3.70;;
59872;SDS011;50750;51.636;4.948;2023-06-01T11:39:25;4.90;;;3.60;;
59872;SDS011;50750;51.636;4.948;2023-06-01T11:42:11;5.90;;;3.80;;
59872;SDS011;50750;51.636;4.948;2023-06-01T11:44:43;6.10;;;3.90;;
59872;SDS011;50750;51.636;4.948;2023-06-01T11:47:11;6.00;;;3.80;;
59872;SDS011;50750;51.636;4.948;2023-06-01T11:49:45;6.90;;;4.20;;
59872;SDS011;50750;51.636;4.948;2023-06-01T11:52:15;5.40;;;3.60;;
59872;SDS011;50750;51.636;4.948;2023-06-01T11:54:43;5.20;;;3.70;;
59872;SDS011;50750;51.636;4.948;2023-06-01T11:57:11;5.70;;;3.80;;
59872;SDS011;50750;51.636;4.948;2023-06-01T12:02:24;5.90;;;3.70;;
59872;SDS011;50750;51.636;4.948;2023-06-01T12:05:02;5.10;;;3.50;;
59872;SDS011;50750;51.636;4.948;2023-06-01T12:07:47;5.20;;;3.40;;
59872;SDS011;50750;51.636;4.948;2023-06-01T12:10:16;6.10;;;3.60;;
59872;SDS011;50750;51.636;4.948;2023-06-01T12:12:45;5.60;;;3.90;;
59872;SDS011;50750;51.636;4.948;2023-06-01T12:15:16;6.40;;;3.90;;
59872;SDS011;50750;51.636;4.948;2023-06-01T12:17:51;5.40;;;3.60;;
59872;SDS011;50750;51.636;4.948;2023-06-01T12:20:31;5.40;;;3.50;;
59872;SDS011;50750;51.636;4.948;2023-06-01T12:25:27;6.90;;;3.70;;
59872;SDS011;50750;51.636;4.948;2023-06-01T12:28:06;6.10;;;3.70;;
59872;SDS011;50750;51.636;4.948;2023-06-01T12:30:34;5.90;;;3.60;;
59872;SDS011;50750;51.636;4.948;2023-06-01T12:33:01;5.40;;;3.40;;
59872;SDS011;50750;51.636;4.948;2023-06-01T12:35:31;5.70;;;3.60;;
59872;SDS011;50750;51.636;4.948;2023-06-01T12:38:08;6.20;;;3.60;;
59872;SDS011;50750;51.636;4.948;2023-06-01T12:40:38;5.80;;;3.40;;
59872;SDS011;50750;51.636;4.948;2023-06-01T12:43:07;6.00;;;3.60;;
59872;SDS011;50750;51.636;4.948;2023-06-01T12:48:34;5.20;;;3.40;;
59872;SDS011;50750;51.636;4.948;2023-06-01T12:51:02;4.70;;;3.20;;
59872;SDS011;50750;51.636;4.948;2023-06-01T12:53:29;6.40;;;3.80;;
59872;SDS011;50750;51.636;4.948;2023-06-01T12:55:56;5.80;;;3.20;;
59872;SDS011;50750;51.636;4.948;2023-06-01T12:58:23;5.20;;;3.50;;
59872;SDS011;50750;51.636;4.948;2023-06-01T13:00:50;5.50;;;3.50;;
59872;SDS011;50750;51.636;4.948;2023-06-01T13:03:16;4.90;;;3.30;;
59872;SDS011;50750;51.636;4.948;2023-06-01T13:05:48;5.80;;;3.30;;
59872;SDS011;50750;51.636;4.948;2023-06-01T13:08:17;4.80;;;3.40;;
59872;SDS011;50750;51.636;4.948;2023-06-01T13:10:45;5.90;;;3.70;;
59872;SDS011;50750;51.636;4.948;2023-06-01T13:13:12;4.90;;;3.60;;
59872;SDS011;50750;51.636;4.948;2023-06-01T13:15:42;5.70;;;3.40;;
59872;SDS011;50750;51.636;4.948;2023-06-01T13:18:11;5.50;;;3.50;;
59872;SDS011;50750;51.636;4.948;2023-06-01T13:20:39;5.00;;;3.50;;
59872;SDS011;50750;51.636;4.948;2023-06-01T13:23:06;5.90;;;3.50;;
59872;SDS011;50750;51.636;4.948;2023-06-01T13:25:33;4.60;;;3.40;;
59872;SDS011;50750;51.636;4.948;2023-06-01T13:28:00;5.00;;;3.10;;
59872;SDS011;50750;51.636;4.948;2023-06-01T13:30:27;5.90;;;3.30;;
59872;SDS011;50750;51.636;4.948;2023-06-01T13:32:55;5.00;;;3.10;;
59872;SDS011;50750;51.636;4.948;2023-06-01T13:35:22;5.20;;;3.50;;
59872;SDS011;50750;51.636;4.948;2023-06-01T13:37:49;5.10;;;3.10;;
59872;SDS011;50750;51.636;4.948;2023-06-01T13:40:16;6.50;;;3.50;;
59872;SDS011;50750;51.636;4.948;2023-06-01T13:42:44;5.60;;;3.30;;
59872;SDS011;50750;51.636;4.948;2023-06-01T13:45:11;5.90;;;3.40;;
59872;SDS011;50750;51.636;4.948;2023-06-01T13:47:38;5.70;;;3.50;;
59872;SDS011;50750;51.636;4.948;2023-06-01T13:50:04;5.80;;;3.20;;
59872;SDS011;50750;51.636;4.948;2023-06-01T13:52:32;5.30;;;3.30;;
59872;SDS011;50750;51.636;4.948;2023-06-01T13:54:59;5.90;;;3.40;;
59872;SDS011;50750;51.636;4.948;2023-06-01T13:57:25;5.80;;;3.40;;
59872;SDS011;50750;51.636;4.948;2023-06-01T13:59:52;5.50;;;3.10;;
59872;SDS011;50750;51.636;4.948;2023-06-01T14:02:18;5.10;;;3.70;;
59872;SDS011;50750;51.636;4.948;2023-06-01T14:04:46;5.40;;;3.70;;
59872;SDS011;50750;51.636;4.948;2023-06-01T14:07:13;5.60;;;3.30;;
59872;SDS011;50750;51.636;4.948;2023-06-01T14:09:40;5.60;;;3.30;;
59872;SDS011;50750;51.636;4.948;2023-06-01T14:12:06;4.50;;;3.20;;
59872;SDS011;50750;51.636;4.948;2023-06-01T14:14:33;5.20;;;3.10;;
59872;SDS011;50750;51.636;4.948;2023-06-01T14:17:02;7.20;;;3.20;;
59872;SDS011;50750;51.636;4.948;2023-06-01T14:19:29;5.20;;;3.20;;
59872;SDS011;50750;51.636;4.948;2023-06-01T14:21:56;5.70;;;3.60;;
59872;SDS011;50750;51.636;4.948;2023-06-01T14:24:22;4.10;;;3.10;;
59872;SDS011;50750;51.636;4.948;2023-06-01T14:26:49;5.60;;;2.90;;
59872;SDS011;50750;51.636;4.948;2023-06-01T14:29:15;4.40;;;3.00;;
59872;SDS011;50750;51.636;4.948;2023-06-01T14:31:42;6.80;;;3.50;;
59872;SDS011;50750;51.636;4.948;2023-06-01T14:34:12;7.20;;;3.30;;
59872;SDS011;50750;51.636;4.948;2023-06-01T14:36:38;5.30;;;3.00;;
59872;SDS011;50750;51.636;4.948;2023-06-01T14:39:07;4.80;;;3.40;;
59872;SDS011;50750;51.636;4.948;2023-06-01T14:41:33;4.40;;;3.10;;
59872;SDS011;50750;51.636;4.948;2023-06-01T14:44:00;5.60;;;3.50;;
59872;SDS011;50750;51.636;4.948;2023-06-01T14:46:27;4.50;;;3.10;;
59872;SDS011;50750;51.636;4.948;2023-06-01T14:48:53;4.80;;;3.00;;
59872;SDS011;50750;51.636;4.948;2023-06-01T14:51:20;5.20;;;3.20;;
59872;SDS011;50750;51.636;4.948;2023-06-01T14:53:47;5.70;;;2.80;;
59872;SDS011;50750;51.636;4.948;2023-06-01T14:56:15;6.30;;;3.40;;
59872;SDS011;50750;51.636;4.948;2023-06-01T14:58:42;5.30;;;3.00;;
59872;SDS011;50750;51.636;4.948;2023-06-01T15:01:08;4.40;;;2.70;;
59872;SDS011;50750;51.636;4.948;2023-06-01T15:03:35;4.90;;;2.70;;
59872;SDS011;50750;51.636;4.948;2023-06-01T15:06:01;4.10;;;2.70;;
59872;SDS011;50750;51.636;4.948;2023-06-01T15:08:28;4.10;;;2.60;;
59872;SDS011;50750;51.636;4.948;2023-06-01T15:10:55;5.90;;;2.70;;
59872;SDS011;50750;51.636;4.948;2023-06-01T15:13:22;3.80;;;2.40;;
59872;SDS011;50750;51.636;4.948;2023-06-01T15:15:48;4.00;;;2.50;;
59872;SDS011;50750;51.636;4.948;2023-06-01T15:18:15;3.80;;;2.40;;
59872;SDS011;50750;51.636;4.948;2023-06-01T15:20:42;4.50;;;2.60;;
59872;SDS011;50750;51.636;4.948;2023-06-01T15:23:10;4.40;;;2.40;;
59872;SDS011;50750;51.636;4.948;2023-06-01T15:25:36;4.10;;;2.40;;
59872;SDS011;50750;51.636;4.948;2023-06-01T15:28:03;5.50;;;2.30;;
59872;SDS011;50750;51.636;4.948;2023-06-01T15:30:29;5.00;;;2.40;;
59872;SDS011;50750;51.636;4.948;2023-06-01T15:32:58;4.20;;;2.30;;
59872;SDS011;50750;51.636;4.948;2023-06-01T15:35:25;3.30;;;2.40;;
59872;SDS011;50750;51.636;4.948;2023-06-01T15:37:54;3.60;;;2.30;;
59872;SDS011;50750;51.636;4.948;2023-06-01T15:40:21;3.30;;;2.30;;
59872;SDS011;50750;51.636;4.948;2023-06-01T15:42:47;4.00;;;2.50;;
59872;SDS011;50750;51.636;4.948;2023-06-01T15:45:16;3.90;;;2.10;;
59872;SDS011;50750;51.636;4.948;2023-06-01T15:47:43;4.10;;;2.20;;
59872;SDS011;50750;51.636;4.948;2023-06-01T15:50:10;3.20;;;2.10;;
59872;SDS011;50750;51.636;4.948;2023-06-01T15:52:36;3.70;;;2.20;;